sensor_id;sensor_type;location;lat;lon;timestamp;temperature;humidity
46676;DHT22;32412;51.478;5.694;2022-12-07T00:02:17;4.50;99.90
46676;DHT22;32412;51.478;5.694;2022-12-07T00:04:43;4.50;99.90
46676;DHT22;32412;51.478;5.694;2022-12-07T00:07:08;4.40;99.90
46676;DHT22;32412;51.478;5.694;2022-12-07T00:09:34;4.40;99.90
46676;DHT22;32412;51.478;5.694;2022-12-07T00:12:00;4.40;99.90
46676;DHT22;32412;51.478;5.694;2022-12-07T00:14:25;4.40;99.90
46676;DHT22;32412;51.478;5.694;2022-12-07T00:16:51;4.30;99.90
46676;DHT22;32412;51.478;5.694;2022-12-07T00:19:18;4.20;99.90
46676;DHT22;32412;51.478;5.694;2022-12-07T00:21:43;4.10;99.90
46676;DHT22;32412;51.478;5.694;2022-12-07T00:24:10;4.10;99.90
46676;DHT22;32412;51.478;5.694;2022-12-07T00:26:38;4.10;99.90
46676;DHT22;32412;51.478;5.694;2022-12-07T00:29:19;4.00;99.90
46676;DHT22;32412;51.478;5.694;2022-12-07T00:31:46;4.00;99.90
46676;DHT22;32412;51.478;5.694;2022-12-07T00:34:17;3.90;99.90
46676;DHT22;32412;51.478;5.694;2022-12-07T00:36:43;3.90;99.90
46676;DHT22;32412;51.478;5.694;2022-12-07T00:39:08;3.80;99.90
46676;DHT22;32412;51.478;5.694;2022-12-07T00:41:34;3.70;99.90
46676;DHT22;32412;51.478;5.694;2022-12-07T00:44:00;3.80;99.90
46676;DHT22;32412;51.478;5.694;2022-12-07T00:46:26;3.70;99.90
46676;DHT22;32412;51.478;5.694;2022-12-07T00:48:52;3.60;99.90
46676;DHT22;32412;51.478;5.694;2022-12-07T00:51:21;3.60;99.90
46676;DHT22;32412;51.478;5.694;2022-12-07T00:53:47;3.50;99.90
46676;DHT22;32412;51.478;5.694;2022-12-07T00:56:15;3.50;99.90
46676;DHT22;32412;51.478;5.694;2022-12-07T00:58:41;3.40;99.90
46676;DHT22;32412;51.478;5.694;2022-12-07T01:01:08;3.30;99.90
46676;DHT22;32412;51.478;5.694;2022-12-07T01:03:35;3.20;99.90
46676;DHT22;32412;51.478;5.694;2022-12-07T01:06:01;3.20;99.90
46676;DHT22;32412;51.478;5.694;2022-12-07T01:08:28;3.20;99.90
46676;DHT22;32412;51.478;5.694;2022-12-07T01:11:05;3.30;99.90
46676;DHT22;32412;51.478;5.694;2022-12-07T01:13:32;3.30;99.90
46676;DHT22;32412;51.478;5.694;2022-12-07T01:16:01;3.40;99.90
46676;DHT22;32412;51.478;5.694;2022-12-07T01:18:28;3.50;99.90
46676;DHT22;32412;51.478;5.694;2022-12-07T01:20:59;3.60;99.90
46676;DHT22;32412;51.478;5.694;2022-12-07T01:23:24;3.70;99.90
46676;DHT22;32412;51.478;5.694;2022-12-07T01:25:55;3.80;99.90
46676;DHT22;32412;51.478;5.694;2022-12-07T01:28:21;3.80;99.90
46676;DHT22;32412;51.478;5.694;2022-12-07T01:30:58;3.80;99.90
46676;DHT22;32412;51.478;5.694;2022-12-07T01:33:24;3.90;99.90
46676;DHT22;32412;51.478;5.694;2022-12-07T01:35:51;3.90;99.90
46676;DHT22;32412;51.478;5.694;2022-12-07T01:38:17;3.90;99.90
46676;DHT22;32412;51.478;5.694;2022-12-07T01:40:42;4.00;99.90
46676;DHT22;32412;51.478;5.694;2022-12-07T01:43:18;4.00;99.90
46676;DHT22;32412;51.478;5.694;2022-12-07T01:45:44;4.00;99.90
46676;DHT22;32412;51.478;5.694;2022-12-07T01:48:12;4.10;99.90
46676;DHT22;32412;51.478;5.694;2022-12-07T01:50:40;4.10;99.90
46676;DHT22;32412;51.478;5.694;2022-12-07T01:53:09;4.00;99.90
46676;DHT22;32412;51.478;5.694;2022-12-07T01:55:40;4.00;99.90
46676;DHT22;32412;51.478;5.694;2022-12-07T01:58:08;4.00;99.90
46676;DHT22;32412;51.478;5.694;2022-12-07T02:00:34;4.00;99.90
46676;DHT22;32412;51.478;5.694;2022-12-07T02:03:06;3.90;99.90
46676;DHT22;32412;51.478;5.694;2022-12-07T02:05:34;3.90;99.90
46676;DHT22;32412;51.478;5.694;2022-12-07T02:08:01;3.80;99.90
46676;DHT22;32412;51.478;5.694;2022-12-07T02:10:30;3.70;99.90
46676;DHT22;32412;51.478;5.694;2022-12-07T02:13:38;3.70;99.90
46676;DHT22;32412;51.478;5.694;2022-12-07T02:16:12;3.70;99.90
46676;DHT22;32412;51.478;5.694;2022-12-07T02:18:41;3.80;99.90
46676;DHT22;32412;51.478;5.694;2022-12-07T02:30:00;4.10;99.90
46676;DHT22;32412;51.478;5.694;2022-12-07T02:35:20;4.00;99.90
46676;DHT22;32412;51.478;5.694;2022-12-07T02:37:56;4.00;99.90
46676;DHT22;32412;51.478;5.694;2022-12-07T02:43:24;3.90;99.90
46676;DHT22;32412;51.478;5.694;2022-12-07T02:45:52;3.90;99.90
46676;DHT22;32412;51.478;5.694;2022-12-07T02:48:19;3.80;99.90
46676;DHT22;32412;51.478;5.694;2022-12-07T02:50:50;3.70;99.90
46676;DHT22;32412;51.478;5.694;2022-12-07T02:53:36;3.70;99.90
46676;DHT22;32412;51.478;5.694;2022-12-07T03:04:45;3.40;99.90
46676;DHT22;32412;51.478;5.694;2022-12-07T03:09:59;3.20;99.90
46676;DHT22;32412;51.478;5.694;2022-12-07T03:12:55;3.20;99.90
46676;DHT22;32412;51.478;5.694;2022-12-07T03:15:23;3.20;99.90
46676;DHT22;32412;51.478;5.694;2022-12-07T03:17:52;3.20;99.90
46676;DHT22;32412;51.478;5.694;2022-12-07T03:20:21;3.10;99.90
46676;DHT22;32412;51.478;5.694;2022-12-07T03:22:48;3.00;99.90
46676;DHT22;32412;51.478;5.694;2022-12-07T03:25:15;3.10;99.90
46676;DHT22;32412;51.478;5.694;2022-12-07T03:27:53;3.10;99.90
46676;DHT22;32412;51.478;5.694;2022-12-07T03:30:24;3.10;99.90
46676;DHT22;32412;51.478;5.694;2022-12-07T03:33:22;3.20;99.90
46676;DHT22;32412;51.478;5.694;2022-12-07T03:36:16;3.30;99.90
46676;DHT22;32412;51.478;5.694;2022-12-07T03:38:48;3.50;99.90
46676;DHT22;32412;51.478;5.694;2022-12-07T03:41:21;3.60;99.90
46676;DHT22;32412;51.478;5.694;2022-12-07T03:43:48;3.70;99.90
46676;DHT22;32412;51.478;5.694;2022-12-07T03:52:51;3.80;99.90
46676;DHT22;32412;51.478;5.694;2022-12-07T03:55:08;3.90;99.90
46676;DHT22;32412;51.478;5.694;2022-12-07T03:57:36;3.80;99.90
46676;DHT22;32412;51.478;5.694;2022-12-07T04:00:05;3.80;99.90
46676;DHT22;32412;51.478;5.694;2022-12-07T04:02:32;3.80;99.90
46676;DHT22;32412;51.478;5.694;2022-12-07T04:04:58;3.80;99.90
46676;DHT22;32412;51.478;5.694;2022-12-07T04:07:25;3.80;99.90
46676;DHT22;32412;51.478;5.694;2022-12-07T04:09:51;3.80;99.90
46676;DHT22;32412;51.478;5.694;2022-12-07T04:12:16;3.90;99.90
46676;DHT22;32412;51.478;5.694;2022-12-07T04:14:42;3.90;99.90
46676;DHT22;32412;51.478;5.694;2022-12-07T04:17:08;4.00;99.90
46676;DHT22;32412;51.478;5.694;2022-12-07T04:19:34;4.00;99.90
46676;DHT22;32412;51.478;5.694;2022-12-07T04:22:01;4.00;99.90
46676;DHT22;32412;51.478;5.694;2022-12-07T04:24:28;4.10;99.90
46676;DHT22;32412;51.478;5.694;2022-12-07T04:26:55;4.10;99.90
46676;DHT22;32412;51.478;5.694;2022-12-07T04:29:21;4.10;99.90
46676;DHT22;32412;51.478;5.694;2022-12-07T04:31:48;4.10;99.90
46676;DHT22;32412;51.478;5.694;2022-12-07T04:34:14;4.10;99.90
46676;DHT22;32412;51.478;5.694;2022-12-07T04:36:41;4.10;99.90
46676;DHT22;32412;51.478;5.694;2022-12-07T04:39:08;4.10;99.90
46676;DHT22;32412;51.478;5.694;2022-12-07T04:41:34;4.10;99.90
46676;DHT22;32412;51.478;5.694;2022-12-07T04:44:03;4.10;99.90
46676;DHT22;32412;51.478;5.694;2022-12-07T04:46:31;4.10;99.90
46676;DHT22;32412;51.478;5.694;2022-12-07T04:48:57;4.10;99.90
46676;DHT22;32412;51.478;5.694;2022-12-07T04:51:25;4.00;99.90
46676;DHT22;32412;51.478;5.694;2022-12-07T04:53:52;4.00;99.90
46676;DHT22;32412;51.478;5.694;2022-12-07T04:56:18;4.00;99.90
46676;DHT22;32412;51.478;5.694;2022-12-07T04:58:45;4.00;99.90
46676;DHT22;32412;51.478;5.694;2022-12-07T05:01:11;4.00;99.90
46676;DHT22;32412;51.478;5.694;2022-12-07T05:03:37;4.00;99.90
46676;DHT22;32412;51.478;5.694;2022-12-07T05:06:04;4.00;99.90
46676;DHT22;32412;51.478;5.694;2022-12-07T05:08:30;4.00;99.90
46676;DHT22;32412;51.478;5.694;2022-12-07T05:10:57;4.00;99.90
46676;DHT22;32412;51.478;5.694;2022-12-07T05:13:22;4.00;99.90
46676;DHT22;32412;51.478;5.694;2022-12-07T05:15:48;4.00;99.90
46676;DHT22;32412;51.478;5.694;2022-12-07T05:18:15;4.00;99.90
46676;DHT22;32412;51.478;5.694;2022-12-07T05:20:41;4.00;99.90
46676;DHT22;32412;51.478;5.694;2022-12-07T05:23:07;3.90;99.90
46676;DHT22;32412;51.478;5.694;2022-12-07T05:25:33;3.90;99.90
46676;DHT22;32412;51.478;5.694;2022-12-07T05:27:59;3.80;99.90
46676;DHT22;32412;51.478;5.694;2022-12-07T05:30:26;3.80;99.90
46676;DHT22;32412;51.478;5.694;2022-12-07T05:32:52;3.70;99.90
46676;DHT22;32412;51.478;5.694;2022-12-07T05:35:18;3.70;99.90
46676;DHT22;32412;51.478;5.694;2022-12-07T05:37:44;3.60;99.90
46676;DHT22;32412;51.478;5.694;2022-12-07T05:40:10;3.50;99.90
46676;DHT22;32412;51.478;5.694;2022-12-07T05:42:36;3.40;99.90
46676;DHT22;32412;51.478;5.694;2022-12-07T05:45:03;3.40;99.90
46676;DHT22;32412;51.478;5.694;2022-12-07T05:47:28;3.40;99.90
46676;DHT22;32412;51.478;5.694;2022-12-07T05:49:54;3.30;99.90
46676;DHT22;32412;51.478;5.694;2022-12-07T05:52:20;3.20;99.90
46676;DHT22;32412;51.478;5.694;2022-12-07T05:54:46;3.10;99.90
46676;DHT22;32412;51.478;5.694;2022-12-07T05:57:12;3.10;99.90
46676;DHT22;32412;51.478;5.694;2022-12-07T05:59:40;3.10;99.90
46676;DHT22;32412;51.478;5.694;2022-12-07T06:02:12;3.10;99.90
46676;DHT22;32412;51.478;5.694;2022-12-07T06:04:40;3.00;99.90
46676;DHT22;32412;51.478;5.694;2022-12-07T06:07:07;3.00;99.90
46676;DHT22;32412;51.478;5.694;2022-12-07T06:09:34;3.00;99.90
46676;DHT22;32412;51.478;5.694;2022-12-07T06:11:59;2.90;99.90
46676;DHT22;32412;51.478;5.694;2022-12-07T06:14:44;2.90;99.90
46676;DHT22;32412;51.478;5.694;2022-12-07T06:17:10;2.90;99.90
46676;DHT22;32412;51.478;5.694;2022-12-07T06:19:37;2.90;99.90
46676;DHT22;32412;51.478;5.694;2022-12-07T06:22:03;2.90;99.90
46676;DHT22;32412;51.478;5.694;2022-12-07T06:24:33;2.90;99.90
46676;DHT22;32412;51.478;5.694;2022-12-07T06:26:59;2.90;99.90
46676;DHT22;32412;51.478;5.694;2022-12-07T06:29:25;2.90;99.90
46676;DHT22;32412;51.478;5.694;2022-12-07T06:31:50;2.90;99.90
46676;DHT22;32412;51.478;5.694;2022-12-07T06:34:19;2.80;99.90
46676;DHT22;32412;51.478;5.694;2022-12-07T06:36:46;2.80;99.90
46676;DHT22;32412;51.478;5.694;2022-12-07T06:39:19;2.80;99.90
46676;DHT22;32412;51.478;5.694;2022-12-07T06:41:45;2.90;99.90
46676;DHT22;32412;51.478;5.694;2022-12-07T06:44:10;2.80;99.90
46676;DHT22;32412;51.478;5.694;2022-12-07T06:46:36;2.70;99.90
46676;DHT22;32412;51.478;5.694;2022-12-07T06:49:03;2.70;99.90
46676;DHT22;32412;51.478;5.694;2022-12-07T06:51:29;2.70;99.90
46676;DHT22;32412;51.478;5.694;2022-12-07T06:53:55;2.60;99.90
46676;DHT22;32412;51.478;5.694;2022-12-07T06:56:21;2.70;99.90
46676;DHT22;32412;51.478;5.694;2022-12-07T06:58:48;2.70;99.90
46676;DHT22;32412;51.478;5.694;2022-12-07T07:01:16;2.70;99.90
46676;DHT22;32412;51.478;5.694;2022-12-07T07:03:42;2.70;99.90
46676;DHT22;32412;51.478;5.694;2022-12-07T07:06:08;2.70;99.90
46676;DHT22;32412;51.478;5.694;2022-12-07T07:08:34;2.60;99.90
46676;DHT22;32412;51.478;5.694;2022-12-07T07:11:03;2.70;99.90
46676;DHT22;32412;51.478;5.694;2022-12-07T07:13:29;2.80;99.90
46676;DHT22;32412;51.478;5.694;2022-12-07T07:15:55;2.80;99.90
46676;DHT22;32412;51.478;5.694;2022-12-07T07:18:21;2.80;99.90
46676;DHT22;32412;51.478;5.694;2022-12-07T07:20:47;2.80;99.90
46676;DHT22;32412;51.478;5.694;2022-12-07T07:23:12;2.70;99.90
46676;DHT22;32412;51.478;5.694;2022-12-07T07:25:38;2.70;99.90
46676;DHT22;32412;51.478;5.694;2022-12-07T07:28:04;2.70;99.90
46676;DHT22;32412;51.478;5.694;2022-12-07T07:30:30;2.80;99.90
46676;DHT22;32412;51.478;5.694;2022-12-07T07:32:57;2.90;99.90
46676;DHT22;32412;51.478;5.694;2022-12-07T07:35:24;2.90;99.90
46676;DHT22;32412;51.478;5.694;2022-12-07T07:37:50;2.90;99.90
46676;DHT22;32412;51.478;5.694;2022-12-07T07:40:16;3.00;99.90
46676;DHT22;32412;51.478;5.694;2022-12-07T07:42:42;3.10;99.90
46676;DHT22;32412;51.478;5.694;2022-12-07T07:45:08;3.00;99.90
46676;DHT22;32412;51.478;5.694;2022-12-07T07:47:33;3.00;99.90
46676;DHT22;32412;51.478;5.694;2022-12-07T07:49:59;3.10;99.90
46676;DHT22;32412;51.478;5.694;2022-12-07T07:52:25;3.20;99.90
46676;DHT22;32412;51.478;5.694;2022-12-07T07:54:50;3.20;99.90
46676;DHT22;32412;51.478;5.694;2022-12-07T07:57:17;3.30;99.90
46676;DHT22;32412;51.478;5.694;2022-12-07T07:59:43;3.30;99.90
46676;DHT22;32412;51.478;5.694;2022-12-07T08:02:14;3.30;99.90
46676;DHT22;32412;51.478;5.694;2022-12-07T08:04:40;3.20;99.90
46676;DHT22;32412;51.478;5.694;2022-12-07T08:07:06;3.20;99.90
46676;DHT22;32412;51.478;5.694;2022-12-07T08:09:31;3.20;99.90
46676;DHT22;32412;51.478;5.694;2022-12-07T08:11:57;3.30;99.90
46676;DHT22;32412;51.478;5.694;2022-12-07T08:14:24;3.30;99.90
46676;DHT22;32412;51.478;5.694;2022-12-07T08:16:50;3.30;99.90
46676;DHT22;32412;51.478;5.694;2022-12-07T08:19:15;3.30;99.90
46676;DHT22;32412;51.478;5.694;2022-12-07T08:21:41;3.40;99.90
46676;DHT22;32412;51.478;5.694;2022-12-07T08:24:07;3.40;99.90
46676;DHT22;32412;51.478;5.694;2022-12-07T08:26:33;3.40;99.90
46676;DHT22;32412;51.478;5.694;2022-12-07T08:28:59;3.40;99.90
46676;DHT22;32412;51.478;5.694;2022-12-07T08:31:25;3.50;99.90
46676;DHT22;32412;51.478;5.694;2022-12-07T08:33:53;3.50;99.90
46676;DHT22;32412;51.478;5.694;2022-12-07T08:36:18;3.50;99.90
46676;DHT22;32412;51.478;5.694;2022-12-07T08:38:44;3.60;99.90
46676;DHT22;32412;51.478;5.694;2022-12-07T08:41:10;3.70;99.90
46676;DHT22;32412;51.478;5.694;2022-12-07T08:43:36;3.90;99.90
46676;DHT22;32412;51.478;5.694;2022-12-07T08:48:53;4.00;99.90
46676;DHT22;32412;51.478;5.694;2022-12-07T08:51:21;4.20;99.90
46676;DHT22;32412;51.478;5.694;2022-12-07T08:53:49;4.30;99.90
46676;DHT22;32412;51.478;5.694;2022-12-07T08:56:14;4.30;99.90
46676;DHT22;32412;51.478;5.694;2022-12-07T08:58:40;4.40;99.90
46676;DHT22;32412;51.478;5.694;2022-12-07T09:01:06;4.40;99.90
46676;DHT22;32412;51.478;5.694;2022-12-07T09:03:32;4.40;99.90
46676;DHT22;32412;51.478;5.694;2022-12-07T09:05:58;4.40;99.90
46676;DHT22;32412;51.478;5.694;2022-12-07T09:08:33;4.50;99.90
46676;DHT22;32412;51.478;5.694;2022-12-07T09:10:59;4.50;99.90
46676;DHT22;32412;51.478;5.694;2022-12-07T09:13:24;4.70;99.90
46676;DHT22;32412;51.478;5.694;2022-12-07T09:15:50;4.90;99.90
46676;DHT22;32412;51.478;5.694;2022-12-07T09:18:16;5.10;99.90
46676;DHT22;32412;51.478;5.694;2022-12-07T09:20:51;5.20;99.90
46676;DHT22;32412;51.478;5.694;2022-12-07T09:23:17;5.20;99.90
46676;DHT22;32412;51.478;5.694;2022-12-07T09:25:43;5.30;99.90
46676;DHT22;32412;51.478;5.694;2022-12-07T09:28:09;5.30;99.90
46676;DHT22;32412;51.478;5.694;2022-12-07T09:30:35;5.30;99.90
46676;DHT22;32412;51.478;5.694;2022-12-07T09:33:00;5.60;99.90
46676;DHT22;32412;51.478;5.694;2022-12-07T09:35:27;5.70;99.90
46676;DHT22;32412;51.478;5.694;2022-12-07T09:37:53;5.60;99.90
46676;DHT22;32412;51.478;5.694;2022-12-07T09:40:20;5.50;99.90
46676;DHT22;32412;51.478;5.694;2022-12-07T09:42:49;5.50;99.90
46676;DHT22;32412;51.478;5.694;2022-12-07T09:45:28;5.40;99.90
46676;DHT22;32412;51.478;5.694;2022-12-07T09:47:57;5.40;99.90
46676;DHT22;32412;51.478;5.694;2022-12-07T09:50:26;5.40;99.90
46676;DHT22;32412;51.478;5.694;2022-12-07T09:52:54;5.40;99.90
46676;DHT22;32412;51.478;5.694;2022-12-07T09:55:40;5.50;99.90
46676;DHT22;32412;51.478;5.694;2022-12-07T09:58:16;5.50;99.90
46676;DHT22;32412;51.478;5.694;2022-12-07T10:00:43;5.60;99.90
46676;DHT22;32412;51.478;5.694;2022-12-07T10:03:11;5.60;99.90
46676;DHT22;32412;51.478;5.694;2022-12-07T10:05:41;5.60;99.90
46676;DHT22;32412;51.478;5.694;2022-12-07T10:08:11;5.70;99.90
46676;DHT22;32412;51.478;5.694;2022-12-07T10:10:37;5.80;99.90
46676;DHT22;32412;51.478;5.694;2022-12-07T10:13:17;6.10;99.90
46676;DHT22;32412;51.478;5.694;2022-12-07T10:15:45;6.20;99.90
46676;DHT22;32412;51.478;5.694;2022-12-07T10:18:34;6.10;99.90
46676;DHT22;32412;51.478;5.694;2022-12-07T10:23:27;6.30;99.90
46676;DHT22;32412;51.478;5.694;2022-12-07T10:25:53;7.50;99.90
46676;DHT22;32412;51.478;5.694;2022-12-07T10:28:20;8.70;99.90
46676;DHT22;32412;51.478;5.694;2022-12-07T10:33:37;9.80;99.90
46676;DHT22;32412;51.478;5.694;2022-12-07T10:36:27;9.90;99.90
46676;DHT22;32412;51.478;5.694;2022-12-07T10:39:11;10.70;99.90
46676;DHT22;32412;51.478;5.694;2022-12-07T10:44:27;11.70;99.90
46676;DHT22;32412;51.478;5.694;2022-12-07T10:55:56;11.60;99.90
46676;DHT22;32412;51.478;5.694;2022-12-07T11:01:25;9.40;99.90
46676;DHT22;32412;51.478;5.694;2022-12-07T11:07:14;8.30;99.90
46676;DHT22;32412;51.478;5.694;2022-12-07T11:18:03;9.50;99.90
46676;DHT22;32412;51.478;5.694;2022-12-07T11:26:29;11.50;99.90
46676;DHT22;32412;51.478;5.694;2022-12-07T11:34:25;13.10;99.90
46676;DHT22;32412;51.478;5.694;2022-12-07T11:36:54;11.70;99.90
46676;DHT22;32412;51.478;5.694;2022-12-07T11:41:52;10.10;99.90
46676;DHT22;32412;51.478;5.694;2022-12-07T11:44:28;9.60;99.90
46676;DHT22;32412;51.478;5.694;2022-12-07T11:50:36;8.70;99.90
46676;DHT22;32412;51.478;5.694;2022-12-07T12:06:32;7.80;99.90
46676;DHT22;32412;51.478;5.694;2022-12-07T12:11:34;7.80;99.90
46676;DHT22;32412;51.478;5.694;2022-12-07T12:14:26;7.70;99.90
46676;DHT22;32412;51.478;5.694;2022-12-07T12:22:57;7.70;99.90
46676;DHT22;32412;51.478;5.694;2022-12-07T12:25:42;7.70;99.90
46676;DHT22;32412;51.478;5.694;2022-12-07T12:28:39;7.80;99.90
46676;DHT22;32412;51.478;5.694;2022-12-07T12:31:07;7.90;99.90
46676;DHT22;32412;51.478;5.694;2022-12-07T12:33:35;7.90;99.90
46676;DHT22;32412;51.478;5.694;2022-12-07T12:38:48;8.60;99.90
46676;DHT22;32412;51.478;5.694;2022-12-07T12:46:52;8.90;99.90
46676;DHT22;32412;51.478;5.694;2022-12-07T12:51:45;8.40;99.90
46676;DHT22;32412;51.478;5.694;2022-12-07T12:54:23;8.20;99.90
46676;DHT22;32412;51.478;5.694;2022-12-07T12:59:40;7.90;99.90
46676;DHT22;32412;51.478;5.694;2022-12-07T13:02:25;7.90;99.90
46676;DHT22;32412;51.478;5.694;2022-12-07T13:15:44;7.70;99.90
46676;DHT22;32412;51.478;5.694;2022-12-07T13:29:12;8.50;99.90
46676;DHT22;32412;51.478;5.694;2022-12-07T13:31:50;8.30;99.90
46676;DHT22;32412;51.478;5.694;2022-12-07T13:34:35;8.10;99.90
46676;DHT22;32412;51.478;5.694;2022-12-07T13:37:14;7.90;99.90
46676;DHT22;32412;51.478;5.694;2022-12-07T13:39:53;7.90;99.90
46676;DHT22;32412;51.478;5.694;2022-12-07T13:42:22;8.50;99.90
46676;DHT22;32412;51.478;5.694;2022-12-07T13:44:50;8.60;99.90
46676;DHT22;32412;51.478;5.694;2022-12-07T13:47:21;8.20;99.90
46676;DHT22;32412;51.478;5.694;2022-12-07T13:49:54;7.80;99.90
46676;DHT22;32412;51.478;5.694;2022-12-07T13:52:25;7.60;99.90
46676;DHT22;32412;51.478;5.694;2022-12-07T13:57:26;7.70;99.90
46676;DHT22;32412;51.478;5.694;2022-12-07T13:59:53;8.10;99.90
46676;DHT22;32412;51.478;5.694;2022-12-07T14:02:21;8.60;99.90
46676;DHT22;32412;51.478;5.694;2022-12-07T14:04:49;9.10;99.90
46676;DHT22;32412;51.478;5.694;2022-12-07T14:07:27;9.50;99.90
46676;DHT22;32412;51.478;5.694;2022-12-07T14:10:00;9.60;99.90
46676;DHT22;32412;51.478;5.694;2022-12-07T14:12:27;8.90;99.90
46676;DHT22;32412;51.478;5.694;2022-12-07T14:14:53;8.40;99.90
46676;DHT22;32412;51.478;5.694;2022-12-07T14:17:23;8.30;99.90
46676;DHT22;32412;51.478;5.694;2022-12-07T14:22:33;7.60;99.90
46676;DHT22;32412;51.478;5.694;2022-12-07T14:25:13;7.40;99.90
46676;DHT22;32412;51.478;5.694;2022-12-07T14:27:47;7.20;99.90
46676;DHT22;32412;51.478;5.694;2022-12-07T14:30:18;7.10;99.90
46676;DHT22;32412;51.478;5.694;2022-12-07T14:32:44;7.00;99.90
46676;DHT22;32412;51.478;5.694;2022-12-07T14:35:15;7.00;99.90
46676;DHT22;32412;51.478;5.694;2022-12-07T14:37:42;7.00;99.90
46676;DHT22;32412;51.478;5.694;2022-12-07T14:40:13;7.00;99.90
46676;DHT22;32412;51.478;5.694;2022-12-07T14:42:39;7.00;99.90
46676;DHT22;32412;51.478;5.694;2022-12-07T14:45:10;7.00;99.90
46676;DHT22;32412;51.478;5.694;2022-12-07T14:47:38;6.90;99.90
46676;DHT22;32412;51.478;5.694;2022-12-07T14:50:04;6.90;99.90
46676;DHT22;32412;51.478;5.694;2022-12-07T14:52:30;6.80;99.90
46676;DHT22;32412;51.478;5.694;2022-12-07T14:54:55;6.80;99.90
46676;DHT22;32412;51.478;5.694;2022-12-07T14:57:21;6.80;99.90
46676;DHT22;32412;51.478;5.694;2022-12-07T14:59:47;6.70;99.90
46676;DHT22;32412;51.478;5.694;2022-12-07T15:02:13;6.50;99.90
46676;DHT22;32412;51.478;5.694;2022-12-07T15:04:39;6.50;99.90
46676;DHT22;32412;51.478;5.694;2022-12-07T15:07:09;6.30;99.90
46676;DHT22;32412;51.478;5.694;2022-12-07T15:09:36;6.20;99.90
46676;DHT22;32412;51.478;5.694;2022-12-07T15:12:01;6.10;99.90
46676;DHT22;32412;51.478;5.694;2022-12-07T15:14:28;6.00;99.90
46676;DHT22;32412;51.478;5.694;2022-12-07T15:16:53;6.00;99.90
46676;DHT22;32412;51.478;5.694;2022-12-07T15:19:23;5.90;99.90
46676;DHT22;32412;51.478;5.694;2022-12-07T15:21:51;5.90;99.90
46676;DHT22;32412;51.478;5.694;2022-12-07T15:24:18;5.90;99.90
46676;DHT22;32412;51.478;5.694;2022-12-07T15:26:43;5.90;99.90
46676;DHT22;32412;51.478;5.694;2022-12-07T15:29:10;5.90;99.90
46676;DHT22;32412;51.478;5.694;2022-12-07T15:31:37;5.90;99.90
46676;DHT22;32412;51.478;5.694;2022-12-07T15:34:03;5.90;99.90
46676;DHT22;32412;51.478;5.694;2022-12-07T15:36:31;5.90;99.90
46676;DHT22;32412;51.478;5.694;2022-12-07T15:38:57;5.90;99.90
46676;DHT22;32412;51.478;5.694;2022-12-07T15:41:23;5.80;99.90
46676;DHT22;32412;51.478;5.694;2022-12-07T15:43:49;5.70;99.90
46676;DHT22;32412;51.478;5.694;2022-12-07T15:46:35;5.70;99.90
46676;DHT22;32412;51.478;5.694;2022-12-07T15:49:01;5.50;99.90
46676;DHT22;32412;51.478;5.694;2022-12-07T15:51:27;5.50;99.90
46676;DHT22;32412;51.478;5.694;2022-12-07T15:53:53;5.50;99.90
46676;DHT22;32412;51.478;5.694;2022-12-07T15:56:19;5.40;99.90
46676;DHT22;32412;51.478;5.694;2022-12-07T15:58:45;5.40;99.90
46676;DHT22;32412;51.478;5.694;2022-12-07T16:01:17;5.40;99.90
46676;DHT22;32412;51.478;5.694;2022-12-07T16:03:43;5.30;99.90
46676;DHT22;32412;51.478;5.694;2022-12-07T16:06:10;5.40;99.90
46676;DHT22;32412;51.478;5.694;2022-12-07T16:08:35;5.40;99.90
46676;DHT22;32412;51.478;5.694;2022-12-07T16:11:05;5.40;99.90
46676;DHT22;32412;51.478;5.694;2022-12-07T16:13:32;5.40;99.90
46676;DHT22;32412;51.478;5.694;2022-12-07T16:15:57;5.40;99.90
46676;DHT22;32412;51.478;5.694;2022-12-07T16:18:23;5.50;99.90
46676;DHT22;32412;51.478;5.694;2022-12-07T16:20:49;5.50;99.90
46676;DHT22;32412;51.478;5.694;2022-12-07T16:23:15;5.50;99.90
46676;DHT22;32412;51.478;5.694;2022-12-07T16:25:41;5.50;99.90
46676;DHT22;32412;51.478;5.694;2022-12-07T16:28:07;5.40;99.90
46676;DHT22;32412;51.478;5.694;2022-12-07T16:30:33;5.50;99.90
46676;DHT22;32412;51.478;5.694;2022-12-07T16:32:59;5.50;99.90
46676;DHT22;32412;51.478;5.694;2022-12-07T16:35:24;5.50;99.90
46676;DHT22;32412;51.478;5.694;2022-12-07T16:37:50;5.50;99.90
46676;DHT22;32412;51.478;5.694;2022-12-07T16:40:16;5.50;99.90
46676;DHT22;32412;51.478;5.694;2022-12-07T16:42:41;5.40;99.90
46676;DHT22;32412;51.478;5.694;2022-12-07T16:45:10;5.40;99.90
46676;DHT22;32412;51.478;5.694;2022-12-07T16:47:40;5.40;99.90
46676;DHT22;32412;51.478;5.694;2022-12-07T16:50:06;5.40;99.90
46676;DHT22;32412;51.478;5.694;2022-12-07T16:52:33;5.40;99.90
46676;DHT22;32412;51.478;5.694;2022-12-07T16:54:59;5.40;99.90
46676;DHT22;32412;51.478;5.694;2022-12-07T16:57:25;5.30;99.90
46676;DHT22;32412;51.478;5.694;2022-12-07T16:59:52;5.30;99.90
46676;DHT22;32412;51.478;5.694;2022-12-07T17:02:18;5.30;99.90
46676;DHT22;32412;51.478;5.694;2022-12-07T17:04:44;5.30;99.90
46676;DHT22;32412;51.478;5.694;2022-12-07T17:07:10;5.30;99.90
46676;DHT22;32412;51.478;5.694;2022-12-07T17:09:36;5.30;99.90
46676;DHT22;32412;51.478;5.694;2022-12-07T17:12:02;5.30;99.90
46676;DHT22;32412;51.478;5.694;2022-12-07T17:14:28;5.30;99.90
46676;DHT22;32412;51.478;5.694;2022-12-07T17:17:12;5.30;99.90
46676;DHT22;32412;51.478;5.694;2022-12-07T17:19:38;5.30;99.90
46676;DHT22;32412;51.478;5.694;2022-12-07T17:22:04;5.30;99.90
46676;DHT22;32412;51.478;5.694;2022-12-07T17:24:30;5.30;99.90
46676;DHT22;32412;51.478;5.694;2022-12-07T17:26:56;5.20;99.90
46676;DHT22;32412;51.478;5.694;2022-12-07T17:29:22;5.20;99.90
46676;DHT22;32412;51.478;5.694;2022-12-07T17:31:48;5.20;99.90
46676;DHT22;32412;51.478;5.694;2022-12-07T17:34:14;5.20;99.90
46676;DHT22;32412;51.478;5.694;2022-12-07T17:36:41;5.20;99.90
46676;DHT22;32412;51.478;5.694;2022-12-07T17:39:08;5.10;99.90
46676;DHT22;32412;51.478;5.694;2022-12-07T17:41:35;5.10;99.90
46676;DHT22;32412;51.478;5.694;2022-12-07T17:44:19;5.10;99.90
46676;DHT22;32412;51.478;5.694;2022-12-07T17:46:47;5.00;99.90
46676;DHT22;32412;51.478;5.694;2022-12-07T17:49:14;5.00;99.90
46676;DHT22;32412;51.478;5.694;2022-12-07T17:51:39;5.10;99.90
46676;DHT22;32412;51.478;5.694;2022-12-07T17:54:23;5.00;99.90
46676;DHT22;32412;51.478;5.694;2022-12-07T17:56:49;5.00;99.90
46676;DHT22;32412;51.478;5.694;2022-12-07T17:59:15;5.00;99.90
46676;DHT22;32412;51.478;5.694;2022-12-07T18:01:41;5.00;99.90
46676;DHT22;32412;51.478;5.694;2022-12-07T18:04:07;5.00;99.90
46676;DHT22;32412;51.478;5.694;2022-12-07T18:06:33;5.00;99.90
46676;DHT22;32412;51.478;5.694;2022-12-07T18:08:59;5.10;99.90
46676;DHT22;32412;51.478;5.694;2022-12-07T18:11:26;5.10;99.90
46676;DHT22;32412;51.478;5.694;2022-12-07T18:14:03;5.10;99.90
46676;DHT22;32412;51.478;5.694;2022-12-07T18:16:30;5.10;99.90
46676;DHT22;32412;51.478;5.694;2022-12-07T18:19:01;5.10;99.90
46676;DHT22;32412;51.478;5.694;2022-12-07T18:21:31;5.10;99.90